Time;durP1;ratioP1;P1;durP2;ratioP2;P2;SDS_P1;SDS_P2;PMS_P1;PMS_P2;Temp;Humidity;BMP_temperature;BMP_pressure;BME280_temperature;BME280_humidity;BME280_pressure;Samples;Min_cycle;Max_cycle;Signal;HPM_P1;HPM_P2
2023/11/12 00:00:45;;;;;;;12.00;7.85;;;;;;;-144.05;80.17;57001.75;5011389;28;20360;-79
2023/11/12 00:03:11;;;;;;;14.05;8.75;;;;;;;-144.05;80.23;57061.22;5011223;28;20084;-82
2023/11/12 00:05:38;;;;;;;13.07;8.13;;;;;;;-144.05;79.96;57025.13;5010767;28;20018;-80
2023/11/12 00:08:04;;;;;;;11.80;8.07;;;;;;;-144.05;80.24;57014.50;5010964;28;20376;-81
2023/11/12 00:10:31;;;;;;;15.38;7.95;;;;;;;-144.05;79.87;57020.88;5010983;28;20082;-79
2023/11/12 00:12:57;;;;;;;13.45;8.48;;;;;;;-144.05;79.50;57025.13;5008223;28;20022;-81
2023/11/12 00:15:24;;;;;;;15.32;8.02;;;;;;;-144.05;79.94;57014.50;5010962;28;20030;-78
2023/11/12 00:17:51;;;;;;;15.93;8.40;;;;;;;-144.05;79.80;57023.00;5011524;28;20124;-80
2023/11/12 00:20:17;;;;;;;15.25;8.15;;;;;;;-144.05;79.67;57001.75;5010986;28;20026;-81
2023/11/12 00:22:44;;;;;;;16.17;8.38;;;;;;;-144.05;79.67;56989.00;5011021;28;20032;-80
2023/11/12 00:25:12;;;;;;;13.45;8.70;;;6.30;99.90;;;-144.05;79.72;57018.75;5010869;28;20048;-79
2023/11/12 00:27:40;;;;;;;17.55;8.98;;;;;;;-144.05;80.20;57018.75;5010760;28;20439;-80
2023/11/12 00:30:07;;;;;;;17.25;8.50;;;6.10;99.90;;;-144.05;79.83;57052.75;5010749;28;20034;-80
2023/11/12 00:32:34;;;;;;;13.13;7.47;;;;;;;-144.05;79.30;57040.00;5010534;28;20024;-79
2023/11/12 00:35:01;;;;;;;17.95;8.75;;;;;;;-144.05;79.03;57016.63;5010512;28;20038;-79
2023/11/12 00:37:27;;;;;;;15.02;8.93;;;;;;;-144.05;79.27;56993.25;5010704;28;20022;-81
2023/11/12 00:39:53;;;;;;;14.35;7.85;;;;;;;-144.05;79.47;57031.50;5007021;28;20018;-78
2023/11/12 00:42:19;;;;;;;16.80;8.82;;;;;;;-144.05;79.21;57003.88;5011461;28;20026;-79
2023/11/12 00:44:46;;;;;;;10.73;7.45;;;;;;;-144.05;79.46;57001.75;5013903;28;20060;-78
2023/11/12 00:47:12;;;;;;;14.02;8.45;;;;;;;-144.05;79.61;56997.50;5013651;28;20030;-80
2023/11/12 00:49:38;;;;;;;14.45;8.68;;;;;;;-144.05;79.76;57001.75;5013797;28;20468;-80
2023/11/12 00:52:05;;;;;;;14.23;9.18;;;;;;;-144.05;79.77;57040.00;5013898;28;20033;-81
2023/11/12 00:54:32;;;;;;;20.70;9.60;;;;;;;-144.05;80.18;57008.13;5013811;28;20112;-80
2023/11/12 00:56:58;;;;;;;15.25;9.35;;;;;;;-144.05;79.47;56999.63;4996051;28;20030;-78
2023/11/12 00:59:24;;;;;;;13.55;8.57;;;;;;;-144.05;79.50;56999.63;5013862;28;20030;-81
2023/11/12 01:01:51;;;;;;;15.05;8.77;;;;;;;-144.05;79.60;57020.88;5014361;28;20484;-79
2023/11/12 01:04:17;;;;;;;13.77;7.68;;;;;;;-144.05;80.20;57040.00;5014112;28;20033;-78
2023/11/12 01:06:43;;;;;;;15.23;8.95;;;;;;;-144.05;80.44;57010.25;5014134;28;20064;-80
2023/11/12 01:09:10;;;;;;;13.18;8.77;;;;;;;-144.05;80.00;57023.00;5013895;28;20145;-79
2023/11/12 01:11:37;;;;;;;15.80;8.60;;;6.40;99.90;;;-144.05;80.05;57016.63;5009714;28;20412;-80
2023/11/12 01:14:04;;;;;;;17.33;9.13;;;;;;;-144.05;79.83;57018.75;5013587;28;20037;-84
2023/11/12 01:16:30;;;;;;;14.05;8.15;;;;;;;-144.05;79.99;57020.88;5013512;28;20080;-79
2023/11/12 01:18:58;;;;;;;14.40;8.38;;;;;;;-144.05;79.21;57012.38;5013921;28;20475;-79
2023/11/12 01:21:26;;;;;;;12.95;8.15;;;;;;;-144.05;79.89;56993.25;5010069;28;20543;-80
2023/11/12 01:23:53;;;;;;;13.32;8.93;;;;;;;-144.05;79.56;57027.25;5009593;28;20057;-81
2023/11/12 01:26:19;;;;;;;12.75;7.90;;;;;;;-144.05;79.69;57042.13;5013401;28;20022;-80
2023/11/12 01:28:45;;;;;;;13.60;8.18;;;;;;;-144.05;79.75;56976.28;5013347;28;20041;-79
2023/11/12 01:31:13;;;;;;;12.35;8.07;;;;;;;-144.05;79.85;57044.25;4996829;28;20395;-80
2023/11/12 01:33:39;;;;;;;13.80;8.75;;;;;;;-144.05;79.90;57016.63;4995950;28;20030;-79
2023/11/12 01:36:06;;;;;;;12.45;8.65;;;;;;;-144.05;79.34;57008.13;5013321;28;20030;-80
2023/11/12 01:38:33;;;;;;;13.10;8.70;;;;;;;-144.05;79.26;57014.50;5013151;28;20080;-80
2023/11/12 01:41:03;;;;;;;18.48;8.90;;;;;;;-144.05;79.38;57046.38;5013566;28;20037;-79
2023/11/12 01:43:30;;;;;;;15.45;8.82;;;6.40;99.90;;;-144.05;78.92;56993.25;5012903;28;20045;-79
2023/11/12 01:46:00;;;;;;;13.25;9.02;;;6.20;99.90;;;-144.05;78.91;57042.13;5012978;28;20021;-80
2023/11/12 01:48:30;;;;;;;21.80;9.43;;;;;;;-144.05;79.28;57020.88;5009517;28;20017;-80
2023/11/12 01:50:59;;;;;;;12.90;9.13;;;;;;;-144.05;79.31;57003.88;5009194;28;20048;-79
2023/11/12 01:53:26;;;;;;;13.70;8.90;;;6.40;99.90;;;-144.05;79.90;57031.50;5008877;28;20514;-80
2023/11/12 01:55:55;;;;;;;14.85;9.57;;;;;;;-144.05;79.75;57040.00;5008250;28;20061;-79
2023/11/12 01:58:22;;;;;;;18.83;10.27;;;;;;;-144.05;79.03;57029.38;5012945;28;20030;-79
2023/11/12 02:00:48;;;;;;;15.35;8.95;;;;;;;-144.05;78.51;57048.50;5012807;28;20080;-79
2023/11/12 02:03:19;;;;;;;18.10;9.52;;;7.00;99.90;;;-144.05;78.63;57044.25;5013163;28;20595;-80
2023/11/12 02:05:46;;;;;;;14.75;8.95;;;;;;;-144.05;79.51;57044.25;5013001;28;20030;-80
2023/11/12 02:08:14;;;;;;;15.13;10.63;;;6.80;99.90;;;-144.05;79.33;57016.63;5013136;28;20026;-78
2023/11/12 02:10:41;;;;;;;14.23;9.00;;;;;;;-144.05;78.56;57027.25;5011429;28;20032;-78
2023/11/12 02:13:08;;;;;;;13.80;9.95;;;;;;;-144.05;78.74;57046.38;4991504;28;20111;-79
2023/11/12 02:15:35;;;;;;;17.25;10.15;;;;;;;-144.05;78.46;57033.63;4994924;28;20037;-79
2023/11/12 02:18:01;;;;;;;18.70;10.93;;;;;;;-144.05;78.38;57027.25;5012740;28;20479;-78
2023/11/12 02:20:27;;;;;;;17.20;10.18;;;;;;;-144.05;78.21;56995.38;4995344;28;20065;-81
2023/11/12 02:22:54;;;;;;;18.80;9.93;;;6.40;99.90;;;-144.05;78.15;57020.88;5008777;28;20022;-76
2023/11/12 02:25:21;;;;;;;14.60;10.32;;;;;;;-144.05;78.42;57048.50;5013054;28;20029;-82
2023/11/12 02:27:48;;;;;;;15.52;11.05;;;;;;;-144.05;78.44;57031.50;5012999;28;20025;-79
2023/11/12 02:30:15;;;;;;;15.20;10.93;;;;;;;-144.05;78.58;57031.50;5013241;28;20026;-80
2023/11/12 02:32:42;;;;;;;18.73;11.00;;;;;;;-144.05;78.25;56989.00;5012949;28;20068;-81
2023/11/12 02:35:08;;;;;;;15.63;10.63;;;;;;;-144.05;79.17;57020.88;5013408;28;20022;-81
2023/11/12 02:37:35;;;;;;;19.38;10.70;;;;;;;-144.05;78.50;57023.00;5013277;28;20148;-79
2023/11/12 02:40:02;;;;;;;16.25;10.93;;;;;;;-144.05;78.77;57025.13;5009609;28;20053;-80
2023/11/12 02:42:29;;;;;;;18.15;11.18;;;;;;;-144.05;78.53;57027.25;5019252;28;20029;-83
2023/11/12 02:44:59;;;;;;;18.40;11.40;;;;;;;-144.05;78.53;57040.00;5013217;28;20022;-80
2023/11/12 02:47:26;;;;;;;21.33;10.77;;;;;;;-144.05;78.42;56993.25;5009872;28;20065;-80
2023/11/12 02:50:25;;;;;;;16.17;11.02;;;;;;;-144.05;79.02;57046.38;5013443;28;20340;-81
2023/11/12 02:52:53;;;;;;;17.85;10.55;;;;;;;-144.05;78.71;57012.38;5013842;28;20068;-81
2023/11/12 02:55:19;;;;;;;20.08;10.73;;;;;;;-144.05;78.50;57014.50;5009835;28;20037;-82
2023/11/12 02:57:47;;;;;;;24.38;12.27;;;;;;;-144.05;78.51;57012.38;5013759;28;20463;-81
2023/11/12 03:00:15;;;;;;;16.75;11.55;;;6.10;99.90;;;-144.05;78.70;57003.88;5013320;28;20029;-81
2023/11/12 03:02:42;;;;;;;18.38;10.55;;;;;;;-144.05;78.65;57001.75;5014160;28;20041;-82
2023/11/12 03:05:08;;;;;;;19.67;10.98;;;;;;;-144.05;79.19;57018.75;5033091;28;20036;-80
2023/11/12 03:07:35;;;;;;;16.05;10.35;;;;;;;-144.05;79.63;57035.75;5036031;28;20026;-81
2023/11/12 03:10:03;;;;;;;19.02;10.52;;;;;;;-144.05;79.09;57008.13;5033731;28;20067;-79
2023/11/12 03:12:29;;;;;;;18.67;10.88;;;;;;;-144.05;79.47;57029.38;5019724;28;20026;-78
2023/11/12 03:14:55;;;;;;;18.90;10.15;;;;;;;-144.05;79.42;57010.25;5012074;28;20038;-79
2023/11/12 03:17:22;;;;;;;18.20;10.52;;;;;;;-144.05;79.49;57054.88;5009272;28;20356;-80
2023/11/12 03:19:49;;;;;;;15.13;11.02;;;;;;;-144.05;79.63;57042.13;5010970;28;20498;-78
2023/11/12 03:22:16;;;;;;;21.33;10.18;;;;;;;-144.05;79.08;57006.00;5011706;28;20406;-81
2023/11/12 03:24:42;;;;;;;14.85;9.45;;;;;;;-144.05;79.13;57012.38;5011281;28;20022;-79
2023/11/12 03:27:10;;;;;;;16.20;9.70;;;;;;;-144.05;78.85;57018.75;5011056;28;20033;-79
2023/11/12 03:29:36;;;;;;;15.63;9.88;;;;;;;-144.05;78.90;57033.63;5010938;28;20026;-80
2023/11/12 03:32:03;;;;;;;19.10;9.70;;;;;;;-144.05;78.93;57031.50;5011177;28;20103;-79
2023/11/12 03:34:29;;;;;;;12.63;9.30;;;;;;;-144.05;79.17;57025.13;5007714;28;20049;-79
2023/11/12 03:36:55;;;;;;;17.55;9.75;;;;;;;-144.05;79.38;57044.25;4993389;28;20026;-77
2023/11/12 03:39:22;;;;;;;16.15;8.90;;;;;;;-144.05;78.90;56993.25;5011053;28;20107;-80
2023/11/12 03:41:48;;;;;;;12.65;8.35;;;;;;;-144.05;78.96;57023.00;5010961;28;20029;-78
2023/11/12 03:44:15;;;;;;;21.13;9.65;;;;;;;-144.05;79.53;56995.38;5007619;28;20084;-78
2023/11/12 03:46:41;;;;;;;17.13;9.40;;;;;;;-144.05;79.42;57027.25;5010858;28;20022;-81
2023/11/12 03:49:07;;;;;;;14.65;8.23;;;;;;;-144.05;79.09;57023.00;5010914;28;20105;-80
2023/11/12 03:51:34;;;;;;;17.05;9.02;;;;;;;-144.05;79.38;57025.13;5010853;28;20026;-78
2023/11/12 03:54:02;;;;;;;16.90;9.13;;;;;;;-144.05;78.95;57020.88;5011118;28;20117;-81
2023/11/12 03:56:30;;;;;;;12.73;8.52;;;;;;;-144.05;79.30;57029.38;5007684;28;20026;-78
2023/11/12 03:58:57;;;;;;;20.08;9.35;;;7.00;99.90;;;-144.05;79.30;57040.00;5010777;28;20040;-79
2023/11/12 04:01:24;;;;;;;16.38;9.48;;;;;;;-144.05;79.38;57031.50;5008411;28;20401;-80
2023/11/12 04:03:52;;;;;;;14.57;9.75;;;6.60;99.90;;;-144.05;79.32;57044.25;4992702;28;20426;-78
2023/11/12 04:06:19;;;;;;;16.75;8.95;;;;;;;-144.05;80.10;57003.88;5010548;28;20487;-79
2023/11/12 04:08:45;;;;;;;15.68;9.32;;;;;;;-144.05;80.42;57018.75;5008211;28;20029;-78
2023/11/12 04:11:12;;;;;;;15.23;8.57;;;;;;;-144.05;80.78;57044.25;5009593;28;20026;-79
2023/11/12 04:13:38;;;;;;;15.52;8.88;;;;;;;-144.05;81.04;56984.78;5008645;28;20033;-79
2023/11/12 04:16:05;;;;;;;16.33;8.48;;;;;;;-144.05;80.59;57035.75;5011428;28;20048;-79
2023/11/12 04:18:32;;;;;;;13.57;9.00;;;;;;;-144.05;80.64;57016.63;5011618;28;20109;-80
2023/11/12 04:20:59;;;;;;;12.48;8.38;;;;;;;-144.05;80.27;57020.88;5014615;28;20026;-78
2023/11/12 04:23:25;;;;;;;11.50;8.10;;;;;;;-144.05;80.83;57025.13;5014425;28;20034;-80
2023/11/12 04:25:51;;;;;;;13.38;9.10;;;;;;;-144.05;80.89;57031.50;5014158;28;20022;-79
2023/11/12 04:28:17;;;;;;;14.02;9.15;;;;;;;-144.05;80.52;57014.50;4993863;28;20029;-80
2023/11/12 04:30:44;;;;;;;13.18;8.95;;;;;;;-144.05;80.09;57035.75;5011547;28;20165;-79
2023/11/12 04:33:10;;;;;;;13.18;8.18;;;;;;;-144.05;79.69;57018.75;5013890;28;20030;-80
2023/11/12 04:35:37;;;;;;;14.57;8.75;;;;;;;-144.05;79.30;57008.13;5011843;28;20493;-78
2023/11/12 04:38:04;;;;;;;13.10;8.50;;;;;;;-144.05;79.35;57006.00;5014321;28;20052;-82
2023/11/12 04:40:30;;;;;;;13.75;9.00;;;;;;;-144.05;79.43;57048.50;5013892;28;20407;-80
2023/11/12 04:42:56;;;;;;;16.00;9.10;;;;;;;-144.05;78.82;57044.25;5014247;28;20017;-79
2023/11/12 04:45:24;;;;;;;12.73;7.65;;;;;;;-144.05;79.18;57016.63;5013901;28;20033;-80
2023/11/12 04:47:50;;;;;;;13.75;8.77;;;;;;;-144.05;79.05;57042.13;5014218;28;20053;-78
2023/11/12 04:50:17;;;;;;;15.82;9.20;;;;;;;-144.05;79.33;57031.50;5014379;28;20026;-78
2023/11/12 04:52:44;;;;;;;16.85;9.02;;;;;;;-144.05;80.62;57029.38;5013962;28;20105;-78
2023/11/12 04:55:10;;;;;;;13.43;9.40;;;;;;;-144.05;80.69;57029.38;5013539;28;20048;-78
2023/11/12 04:57:36;;;;;;;15.50;8.25;;;;;;;-144.05;80.82;57031.50;5013776;28;20045;-78
2023/11/12 05:00:03;;;;;;;15.07;9.85;;;;;;;-144.05;80.50;57016.63;5013873;28;20189;-79
2023/11/12 05:02:29;;;;;;;14.70;8.57;;;;;;;-144.05;80.84;57010.25;5013598;28;20030;-78
2023/11/12 05:04:56;;;;;;;16.83;10.02;;;;;;;-144.05;80.79;57018.75;5013787;28;20014;-79
2023/11/12 05:07:22;;;;;;;16.83;8.05;;;;;;;-144.05;80.41;57044.25;4995915;28;20028;-80
2023/11/12 05:09:48;;;;;;;14.68;8.40;;;;;;;-144.05;79.55;57025.13;5013365;28;20168;-79
2023/11/12 05:12:15;;;;;;;12.07;9.13;;;;;;;-144.05;79.15;57048.50;5010815;28;20022;-79
2023/11/12 05:14:41;;;;;;;15.80;9.05;;;;;;;-144.05;78.89;57020.88;5010581;28;20034;-79
2023/11/12 05:17:08;;;;;;;16.17;8.48;;;;;;;-144.05;78.60;57001.75;5013378;28;20030;-80
2023/11/12 05:19:34;;;;;;;12.18;8.82;;;;;;;-144.05;78.83;57006.00;5013304;28;20026;-81
2023/11/12 05:22:00;;;;;;;15.02;9.05;;;;;;;-144.05;78.32;57020.88;5013249;28;20083;-79
2023/11/12 05:24:26;;;;;;;12.45;7.78;;;;;;;-144.05;78.93;57056.97;5013345;28;20060;-79
2023/11/12 05:26:53;;;;;;;12.73;8.77;;;;;;;-144.05;79.08;57029.38;4995541;28;20052;-79
2023/11/12 05:29:19;;;;;;;12.25;7.97;;;;;;;-144.05;78.75;57056.97;5012396;28;20113;-79
2023/11/12 05:31:45;;;;;;;15.38;7.88;;;;;;;-144.05;78.66;57025.13;5010582;28;20160;-79
2023/11/12 05:34:13;;;;;;;14.80;8.70;;;;;;;-144.05;79.29;57044.25;5013062;28;20037;-77
2023/11/12 05:36:40;;;;;;;13.63;8.50;;;5.90;99.90;;;-144.05;79.40;57033.63;5013152;28;20131;-79
2023/11/12 05:39:06;;;;;;;14.20;8.85;;;;;;;-144.05;79.29;57059.09;5013088;28;20139;-80
2023/11/12 05:41:32;;;;;;;12.35;7.63;;;;;;;-144.05;78.76;57003.88;5012736;28;20092;-82
2023/11/12 05:43:58;;;;;;;12.02;8.00;;;;;;;-144.05;78.38;57014.50;5012962;28;20105;-79
2023/11/12 05:46:27;;;;;;;14.43;8.48;;;5.80;99.90;;;-144.05;78.89;57014.50;5012805;28;20026;-78
2023/11/12 05:48:54;;;;;;;11.40;7.70;;;;;;;-144.05;79.00;57059.09;5012859;28;20445;-80
2023/11/12 05:51:20;;;;;;;11.93;7.20;;;;;;;-144.05;78.82;57071.84;5012570;28;20463;-79
2023/11/12 05:53:46;;;;;;;10.20;6.55;;;;;;;-144.05;78.78;57027.25;5012675;28;20026;-78
2023/11/12 05:56:13;;;;;;;14.02;8.70;;;;;;;-144.05;78.86;57020.88;5012695;28;20088;-78
2023/11/12 05:58:39;;;;;;;14.93;7.55;;;;;;;-144.05;79.25;57042.13;5012766;28;20479;-79
2023/11/12 06:01:05;;;;;;;15.27;7.80;;;;;;;-144.05;79.50;57018.75;5012514;28;20034;-78
2023/11/12 06:03:31;;;;;;;11.40;7.88;;;;;;;-144.05;80.04;57048.50;5012331;28;20559;-79
2023/11/12 06:05:58;;;;;;;13.82;7.68;;;;;;;-144.05;80.08;57031.50;5012380;28;20030;-79
2023/11/12 06:08:24;;;;;;;12.57;7.88;;;;;;;-144.05;80.02;56986.91;5012462;28;20088;-80
2023/11/12 06:10:50;;;;;;;13.40;8.32;;;;;;;-144.05;80.40;57065.47;5009988;28;20089;-79
2023/11/12 06:13:16;;;;;;;16.48;7.40;;;;;;;-144.05;80.19;57014.50;5012309;28;20029;-80
2023/11/12 06:15:43;;;;;;;12.95;8.57;;;;;;;-144.05;80.03;57033.63;5012094;28;20113;-79
2023/11/12 06:18:09;;;;;;;11.70;7.82;;;;;;;-144.05;79.75;57040.00;5012356;28;20065;-78
2023/11/12 06:20:35;;;;;;;12.68;7.57;;;;;;;-144.05;79.64;56997.50;5011957;28;20030;-79
2023/11/12 06:23:02;;;;;;;14.23;8.15;;;;;;;-144.05;79.73;57040.00;5012554;28;20033;-81
2023/11/12 06:25:29;;;;;;;16.15;7.35;;;;;;;-144.05;79.85;56993.25;5013526;28;20034;-80
2023/11/12 06:27:55;;;;;;;10.38;6.68;;;;;;;-144.05;79.96;57020.88;4997381;28;20487;-80
2023/11/12 06:30:21;;;;;;;12.95;7.60;;;;;;;-144.05;80.15;57052.75;5014119;28;20025;-81
2023/11/12 06:32:47;;;;;;;13.13;7.65;;;;;;;-144.05;80.75;57048.50;5014370;28;20018;-81
2023/11/12 06:35:14;;;;;;;14.10;7.88;;;;;;;-144.05;80.77;57044.25;4997257;28;20555;-82
2023/11/12 06:37:40;;;;;;;12.85;7.75;;;;;;;-144.05;80.56;57054.88;5014251;28;20116;-80
2023/11/12 06:40:08;;;;;;;11.20;6.88;;;;;;;-144.05;80.30;57063.34;5011590;28;20030;-79
2023/11/12 06:42:34;;;;;;;12.15;8.38;;;;;;;-144.05;80.41;57020.88;5011773;28;20061;-80
2023/11/12 06:45:00;;;;;;;14.52;8.13;;;;;;;-144.05;80.44;57023.00;5011821;28;20463;-80
2023/11/12 06:47:26;;;;;;;11.40;7.65;;;;;;;-144.05;80.59;57042.13;5011514;28;20503;-78
2023/11/12 06:49:53;;;;;;;12.77;7.28;;;;;;;-144.05;80.97;57050.63;5011681;28;20029;-80
2023/11/12 06:52:19;;;;;;;12.68;7.38;;;;;;;-144.05;81.70;57063.34;5011921;28;20072;-80
2023/11/12 06:54:45;;;;;;;13.45;7.10;;;;;;;-144.05;81.43;57061.22;5011675;28;20125;-78
2023/11/12 06:57:11;;;;;;;13.75;8.02;;;;;;;-144.05;81.54;57069.72;5009856;28;20030;-78
2023/11/12 06:59:38;;;;;;;14.07;8.52;;;;;;;-144.05;81.67;57001.75;5011346;28;20022;-78
2023/11/12 07:02:04;;;;;;;15.05;8.15;;;;;;;-144.05;81.70;57033.63;5011430;28;20030;-80
2023/11/12 07:04:30;;;;;;;17.02;8.13;;;;;;;-144.05;81.48;57042.13;5011731;28;20032;-79
2023/11/12 07:06:57;;;;;;;15.98;8.73;;;;;;;-144.05;81.67;57048.50;5011423;28;20079;-78
2023/11/12 07:09:25;;;;;;;13.07;7.25;;;;;;;-144.05;81.42;57044.25;5011364;28;20533;-79
2023/11/12 07:11:51;;;;;;;13.52;8.60;;;;;;;-144.05;81.31;57027.25;5009650;28;20033;-79
2023/11/12 07:14:17;;;;;;;15.70;8.02;;;;;;;-144.05;81.62;57031.50;5011231;28;20038;-79
2023/11/12 07:16:44;;;;;;;12.52;7.82;;;;;;;-144.05;81.41;57052.75;5011207;28;20030;-79
2023/11/12 07:19:10;;;;;;;14.63;7.13;;;;;;;-144.05;81.27;57050.63;5011465;28;20111;-78
2023/11/12 07:21:36;;;;;;;12.15;7.78;;;;;;;-144.05;81.45;57042.13;5011094;28;20022;-79
2023/11/12 07:24:03;;;;;;;13.80;7.70;;;;;;;-144.05;81.29;57018.75;5011413;28;20107;-80
2023/11/12 07:26:29;;;;;;;11.50;7.88;;;;;;;-144.05;81.35;57054.88;5011166;28;20084;-80
2023/11/12 07:28:57;;;;;;;12.38;6.95;;;;;;;-144.05;81.25;57014.50;5011467;28;20450;-80
2023/11/12 07:31:23;;;;;;;14.15;7.13;;;;;;;-144.05;81.46;57050.63;5011048;28;20111;-79
2023/11/12 07:33:50;;;;;;;14.23;7.57;;;;;;;-144.05;81.16;57029.38;5011596;28;20507;-79
2023/11/12 07:36:16;;;;;;;11.05;6.43;;;;;;;-144.05;80.45;57044.25;5011315;28;20065;-81
2023/11/12 07:38:42;;;;;;;11.35;6.85;;;;;;;-144.05;79.21;57031.50;4993382;28;20029;-79
2023/11/12 07:41:09;;;;;;;7.53;5.70;;;;;;;-144.05;77.71;57006.00;5011267;28;20022;-79
2023/11/12 07:43:36;;;;;;;7.10;4.78;;;;;;;-144.05;77.09;57020.88;5011039;28;20103;-78
2023/11/12 07:46:06;;;;;;;6.38;4.80;;;6.70;99.90;;;-144.05;75.00;56999.63;5011394;28;20026;-79
2023/11/12 07:48:33;;;;;;;12.77;5.03;;;;;;;-144.05;74.79;56995.38;5013215;28;20048;-79
2023/11/12 07:51:00;;;;;;;7.57;4.70;;;;;;;-144.05;75.08;56991.13;5012972;28;20429;-79
2023/11/12 07:53:27;;;;;;;6.32;4.00;;;6.60;99.90;;;-144.05;75.43;56984.78;5015668;28;20095;-79
2023/11/12 07:55:54;;;;;;;8.63;4.15;;;;;;;-144.05;75.41;56984.78;5010858;28;20022;-78
2023/11/12 07:58:20;;;;;;;8.07;4.70;;;;;;;-144.05;75.17;57048.50;5016676;28;20029;-81
2023/11/12 08:00:46;;;;;;;6.93;4.53;;;;;;;-144.05;75.31;57018.75;5016241;28;20029;-79
2023/11/12 08:03:13;;;;;;;10.23;5.22;;;;;;;-144.05;74.90;57025.13;5017693;28;20128;-77
2023/11/12 08:05:40;;;;;;;8.63;5.20;;;;;;;-144.05;74.97;57031.50;5017473;28;20026;-79
2023/11/12 08:08:08;;;;;;;9.93;5.22;;;6.80;99.90;;;-144.05;74.98;57001.75;5017536;28;20033;-77
2023/11/12 08:10:37;;;;;;;7.35;4.20;;;;;;;-144.05;74.71;57003.88;5017727;28;20379;-77
2023/11/12 08:13:04;;;;;;;10.38;4.50;;;;;;;-144.05;73.83;57006.00;4998595;28;20376;-77
2023/11/12 08:15:30;;;;;;;5.47;4.30;;;;;;;-144.05;71.55;56978.41;5017081;28;20038;-79
2023/11/12 08:17:56;;;;;;;5.22;3.67;;;;;;;-144.05;69.48;57010.25;5018272;28;20029;-78
2023/11/12 08:20:22;;;;;;;6.22;3.60;;;;;;;-144.05;67.79;57006.00;5017213;28;20033;-78
2023/11/12 08:22:48;;;;;;;4.85;3.22;;;;;;;-144.05;67.17;57006.00;5017448;28;20049;-78
2023/11/12 08:25:15;;;;;;;6.07;2.97;;;;;;;-144.05;67.05;56997.50;5016636;28;20092;-80
2023/11/12 08:27:41;;;;;;;6.40;3.53;;;;;;;-144.05;67.07;57012.38;5016755;28;20038;-78
2023/11/12 08:30:08;;;;;;;4.63;3.42;;;;;;;-144.05;66.78;56986.91;5017206;28;20030;-84
2023/11/12 08:32:35;;;;;;;5.53;3.13;;;;;;;-144.05;67.36;56967.78;5016846;28;20104;-82
2023/11/12 08:35:01;;;;;;;3.20;2.40;;;;;;;-144.05;67.05;56991.13;4999145;28;20034;-81
2023/11/12 08:37:28;;;;;;;4.03;2.85;;;;;;;-144.05;67.23;56997.50;5016524;28;20026;-81
2023/11/12 08:39:54;;;;;;;4.63;3.20;;;;;;;-144.05;68.21;56999.63;5008903;28;20068;-80
2023/11/12 08:42:20;;;;;;;5.80;2.90;;;;;;;-144.05;67.44;56991.13;5017022;28;20387;-80
2023/11/12 08:44:46;;;;;;;5.55;3.20;;;;;;;-144.05;68.08;56999.63;5017722;28;20044;-82
2023/11/12 08:47:13;;;;;;;4.63;3.30;;;;;;;-144.05;67.80;57023.00;5032175;28;20030;-77
2023/11/12 08:49:39;;;;;;;3.85;2.92;;;;;;;-144.05;68.24;56995.38;5032323;28;20052;-82
2023/11/12 08:52:05;;;;;;;3.80;2.50;;;;;;;-144.05;67.81;57008.13;5011836;28;20030;-78
2023/11/12 08:54:34;;;;;;;7.43;2.80;;;;;;;-144.05;67.90;56995.38;5032261;28;20092;-79
2023/11/12 08:57:00;;;;;;;4.45;2.60;;;;;;;-144.05;67.66;57010.25;5017062;28;20045;-79
2023/11/12 08:59:27;;;;;;;4.70;2.55;;;;;;;-144.05;67.54;57023.00;5016325;28;20525;-78
2023/11/12 09:01:54;;;;;;;4.72;2.78;;;;;;;-144.05;67.91;56997.50;5016091;28;20033;-78
2023/11/12 09:04:20;;;;;;;6.72;3.03;;;;;;;-144.05;68.28;57012.38;5016876;28;20026;-77
2023/11/12 09:06:46;;;;;;;3.35;2.58;;;;;;;-144.05;67.84;56995.38;5016895;28;20021;-78
2023/11/12 09:09:12;;;;;;;11.00;3.47;;;;;;;-144.05;68.21;56986.91;5016047;28;20177;-78
2023/11/12 09:11:39;;;;;;;9.23;2.63;;;;;;;-144.05;67.91;56999.63;5014989;28;20030;-82
2023/11/12 09:14:06;;;;;;;6.03;2.70;;;;;;;-144.05;67.79;56993.25;5016292;28;20056;-81
2023/11/12 09:16:33;;;;;;;6.32;3.20;;;;;;;-144.05;67.15;56993.25;5016514;28;20036;-81
2023/11/12 09:19:00;;;;;;;5.28;2.53;;;;;;;-144.05;67.91;57008.13;5016723;28;20037;-81
2023/11/12 09:21:31;;;;;;;6.35;3.28;;;8.30;99.90;;;-144.05;68.08;57006.00;5015441;28;20022;-82
2023/11/12 09:23:58;;;;;;;4.40;2.97;;;;;;;-144.05;67.21;56980.53;5015935;28;20026;-80
2023/11/12 09:26:24;;;;;;;5.78;2.70;;;;;;;-144.05;67.14;56991.13;5016355;28;20066;-82
2023/11/12 09:28:51;;;;;;;4.82;2.50;;;;;;;-144.05;67.20;57001.75;5016987;28;20055;-82
2023/11/12 09:31:19;;;;;;;5.32;2.50;;;;;;;-144.05;67.56;56997.50;5016789;28;20026;-82
2023/11/12 09:33:46;;;;;;;6.57;2.80;;;;;;;-144.05;67.05;57020.88;4998014;28;20018;-81
2023/11/12 09:36:13;;;;;;;4.32;2.03;;;;;;;-144.05;67.02;57010.25;5015384;28;20403;-82
2023/11/12 09:38:40;;;;;;;5.97;2.75;;;;;;;-144.05;66.75;56976.28;5015898;28;20034;-82
2023/11/12 09:41:08;;;;;;;7.50;2.65;;;8.20;99.90;;;-144.05;65.87;56982.66;4998772;28;20178;-84
2023/11/12 09:43:34;;;;;;;7.20;2.72;;;;;;;-144.05;65.78;57014.50;5016660;28;20501;-82
2023/11/12 09:46:08;;;;;;;4.72;2.53;;;8.50;99.90;;;-144.05;66.14;57012.38;5017174;28;20106;-81
2023/11/12 09:48:39;;;;;;;4.57;2.15;;;8.50;99.90;;;-144.05;65.62;57016.63;5017627;28;20101;-82
2023/11/12 09:51:08;;;;;;;5.28;2.30;;;8.50;99.90;;;-144.05;65.12;56995.38;5017725;28;20479;-82
2023/11/12 09:53:47;;;;;;;7.28;2.22;;;;;;;-144.05;65.11;56986.91;5017185;28;20030;-82
2023/11/12 09:56:13;;;;;;;4.68;2.22;;;;;;;-144.05;65.06;56991.13;5016626;28;20034;-81
2023/11/12 09:58:41;;;;;;;5.40;2.30;;;;;;;-144.05;65.05;56967.78;4998466;28;20454;-81
2023/11/12 10:01:11;;;;;;;5.15;2.75;;;9.60;99.90;;;-144.05;64.07;56976.28;5015565;28;20034;-79
2023/11/12 10:03:39;;;;;;;3.38;2.03;;;9.10;99.90;;;-144.05;64.09;56965.66;5014857;28;20510;-79
2023/11/12 10:06:07;;;;;;;3.42;2.25;;;6.20;99.90;;;-144.05;63.51;56976.28;5015079;28;20022;-78
2023/11/12 10:08:36;;;;;;;4.35;1.80;;;10.00;99.90;;;-144.05;62.10;57001.75;5014921;28;20096;-79
2023/11/12 10:11:24;;;;;;;8.00;2.35;;;10.40;99.90;;;-144.05;60.67;56950.78;5014407;28;20050;-80
2023/11/12 10:13:51;;;;;;;3.53;1.90;;;;;;;-144.05;59.10;56976.28;5014186;28;20034;-82
2023/11/12 10:16:23;;;;;;;3.65;2.03;;;11.00;99.90;;;-144.05;58.65;56982.66;5014556;28;20030;-81
2023/11/12 10:19:05;;;;;;;5.22;2.00;;;;;;;-144.05;55.99;56993.25;5014832;28;20317;-79
2023/11/12 10:21:31;;;;;;;3.22;1.80;;;;;;;-144.05;56.28;56974.16;5014862;28;20026;-76
2023/11/12 10:24:05;;;;;;;3.53;1.73;;;11.20;99.90;;;-144.05;55.37;56967.78;5015568;28;20025;-78
2023/11/12 10:26:38;;;;;;;4.68;1.85;;;11.10;99.90;;;-144.05;56.20;56967.78;5015070;28;20034;-79
2023/11/12 10:29:07;;;;;;;4.35;1.77;;;;;;;-144.05;55.48;56965.66;5015376;28;20499;-79
2023/11/12 10:31:39;;;;;;;4.32;2.17;;;11.10;99.90;;;-144.05;55.96;56984.78;4996622;28;20411;-77
2023/11/12 10:34:05;;;;;;;5.82;1.92;;;;;;;-144.05;55.30;56989.00;5014714;28;20030;-80
2023/11/12 10:36:31;;;;;;;3.65;2.25;;;;;;;-144.05;54.85;57001.75;5013864;28;20025;-77
2023/11/12 10:39:11;;;;;;;3.38;1.65;;;11.10;99.90;;;-144.05;55.50;56955.03;5013736;28;20022;-78
2023/11/12 10:41:39;;;;;;;7.85;1.75;;;;;;;-144.05;54.13;56986.91;5015125;28;20029;-78
2023/11/12 10:44:11;;;;;;;3.72;1.80;;;12.00;99.90;;;-144.05;54.77;56974.16;5015440;28;20030;-80
2023/11/12 10:46:43;;;;;;;3.33;1.90;;;;;;;-144.05;54.90;56976.28;5015524;28;20026;-80
2023/11/12 10:49:12;;;;;;;3.20;1.50;;;;;;;-144.05;54.66;56993.25;5015457;28;20054;-79
2023/11/12 10:51:41;;;;;;;4.88;1.50;;;11.20;99.90;;;-144.05;54.13;56980.53;5014535;28;20034;-81
2023/11/12 10:54:11;;;;;;;2.00;1.58;;;11.10;99.90;;;-144.05;54.36;56963.53;5015367;28;20030;-80
2023/11/12 10:56:37;;;;;;;4.05;1.60;;;;;;;-144.05;54.08;56986.91;5014436;28;20026;-78
2023/11/12 10:59:05;;;;;;;3.75;1.60;;;11.20;99.90;;;-144.05;54.01;56989.00;5014702;28;20105;-77
2023/11/12 11:01:34;;;;;;;3.05;1.33;;;11.00;99.90;;;-144.05;53.10;56986.91;4997065;28;20030;-79